createdAt,value
2017-08-04T00:00:00.776Z,0
2017-08-04T00:01:00.142Z,0
2017-08-04T00:02:00.767Z,0
2017-08-04T00:03:00.438Z,0
2017-08-04T00:04:01.044Z,0
2017-08-04T00:05:00.099Z,0
2017-08-04T00:06:00.418Z,0
2017-08-04T00:07:00.395Z,0
2017-08-04T00:08:00.751Z,0
2017-08-04T00:09:00.373Z,0
2017-08-04T00:10:00.989Z,0
2017-08-04T00:11:00.660Z,0
2017-08-04T00:12:00.964Z,0
2017-08-04T00:13:00.646Z,0
2017-08-04T00:14:00.960Z,0
2017-08-04T00:15:00.623Z,0
2017-08-04T00:16:00.623Z,0
2017-08-04T00:17:00.611Z,0
2017-08-04T00:18:00.593Z,0
2017-08-04T00:19:00.270Z,0
2017-08-04T00:20:00.263Z,0
2017-08-04T00:21:00.249Z,0
2017-08-04T00:22:00.242Z,0
2017-08-04T00:23:00.238Z,0
2017-08-04T00:24:00.552Z,0
2017-08-04T00:25:00.836Z,0
2017-08-04T00:26:00.828Z,0
2017-08-04T00:27:00.498Z,0
2017-08-04T00:28:00.807Z,0
2017-08-04T00:29:00.798Z,0
2017-08-04T00:30:00.473Z,0
2017-08-04T00:31:00.469Z,0
2017-08-04T00:32:00.459Z,0
2017-08-04T00:33:00.753Z,0
2017-08-04T00:34:00.739Z,0
2017-08-04T00:34:59.800Z,0
2017-08-04T00:36:00.410Z,0
2017-08-04T00:37:00.087Z,0
2017-08-04T00:38:00.081Z,0
2017-08-04T00:39:00.070Z,0
2017-08-04T00:40:00.371Z,0
2017-08-04T00:41:00.368Z,0
2017-08-04T00:42:00.038Z,0
2017-08-04T00:43:00.545Z,0
2017-08-04T00:44:00.335Z,0
2017-08-04T00:45:00.004Z,0
2017-08-04T00:46:00.310Z,0
2017-08-04T00:47:00.295Z,0
2017-08-04T00:47:59.973Z,0
2017-08-04T00:48:59.967Z,0
2017-08-04T00:49:59.955Z,0
2017-08-04T00:51:00.257Z,0
2017-08-04T00:52:00.252Z,0
2017-08-04T00:53:00.242Z,0
2017-08-04T00:54:00.251Z,0
2017-08-04T00:54:59.899Z,0
2017-08-04T00:56:00.211Z,0
2017-08-04T00:56:59.879Z,0
2017-08-04T00:58:00.507Z,0
2017-08-04T00:58:59.552Z,0
2017-08-04T01:00:00.468Z,0
2017-08-04T01:01:00.157Z,0
2017-08-04T01:01:59.829Z,0
2017-08-04T01:03:00.137Z,0
2017-08-04T01:03:59.806Z,0
2017-08-04T01:05:00.427Z,0
2017-08-04T01:06:00.438Z,0
2017-08-04T01:07:00.090Z,0
2017-08-04T01:08:00.077Z,0
2017-08-04T01:09:00.069Z,0
2017-08-04T01:10:00.056Z,0
2017-08-04T01:10:59.732Z,0
2017-08-04T01:11:59.724Z,0
2017-08-04T01:13:00.338Z,0
2017-08-04T01:14:00.341Z,0
2017-08-04T01:15:00.007Z,0
2017-08-04T01:15:59.684Z,0
2017-08-04T01:16:59.672Z,0
2017-08-04T01:17:59.354Z,0
2017-08-04T01:18:59.959Z,0
2017-08-04T01:20:00.261Z,0
2017-08-04T01:20:59.943Z,0
2017-08-04T01:21:59.617Z,0
2017-08-04T01:22:59.924Z,0
2017-08-04T01:23:59.959Z,0
2017-08-04T01:24:59.277Z,0
2017-08-04T01:25:59.895Z,0
2017-08-04T01:26:59.770Z,0
2017-08-04T01:27:59.867Z,0
2017-08-04T01:28:59.853Z,0
2017-08-04T01:29:59.529Z,0
2017-08-04T01:30:59.854Z,0
2017-08-04T01:31:59.203Z,0
2017-08-04T01:33:00.131Z,0
2017-08-04T01:34:00.119Z,0
2017-08-04T01:34:59.794Z,0
2017-08-04T01:35:59.464Z,0
2017-08-04T01:36:59.766Z,0
2017-08-04T01:37:59.778Z,0
2017-08-04T01:38:59.752Z,0
2017-08-04T01:39:59.738Z,0
2017-08-04T01:40:59.728Z,0
2017-08-04T01:41:59.089Z,0
2017-08-04T01:43:00.025Z,0
2017-08-04T01:43:59.379Z,0
2017-08-04T01:44:59.698Z,0
2017-08-04T01:46:01.189Z,0
2017-08-04T01:46:59.670Z,0
2017-08-04T01:47:59.963Z,0
2017-08-04T01:48:59.636Z,0
2017-08-04T01:49:59.315Z,0
2017-08-04T01:50:59.622Z,0
2017-08-04T01:51:59.609Z,0
2017-08-04T01:52:59.590Z,0
2017-08-04T01:53:59.587Z,0
2017-08-04T01:54:59.908Z,0
2017-08-04T01:55:59.878Z,0
2017-08-04T01:56:59.242Z,0
2017-08-04T01:57:59.852Z,0
2017-08-04T01:58:59.842Z,0
2017-08-04T01:59:59.516Z,0
2017-08-04T02:00:59.506Z,0
2017-08-04T02:01:59.499Z,0
2017-08-04T02:02:59.489Z,0
2017-08-04T02:03:59.478Z,0
2017-08-04T02:04:59.163Z,0
2017-08-04T02:05:59.454Z,0
2017-08-04T02:06:59.449Z,0
2017-08-04T02:07:59.630Z,0
2017-08-04T02:08:59.737Z,0
2017-08-04T02:09:59.421Z,0
2017-08-04T02:10:59.399Z,0
2017-08-04T02:11:59.083Z,0
2017-08-04T02:12:59.067Z,0
2017-08-04T02:13:59.681Z,0
2017-08-04T02:14:59.673Z,0
2017-08-04T02:15:59.348Z,0
2017-08-04T02:16:59.648Z,0
2017-08-04T02:17:59.634Z,0
2017-08-04T02:18:59.316Z,0
2017-08-04T02:19:58.998Z,0
2017-08-04T02:20:59.289Z,0
2017-08-04T02:21:59.599Z,0
2017-08-04T02:22:59.271Z,0
2017-08-04T02:23:59.260Z,0
2017-08-04T02:24:58.938Z,0
2017-08-04T02:25:58.925Z,0
2017-08-04T02:26:59.225Z,0
2017-08-04T02:27:59.218Z,0
2017-08-04T02:28:59.583Z,0
2017-08-04T02:29:58.880Z,0
2017-08-04T02:30:59.185Z,0
2017-08-04T02:31:59.175Z,0
2017-08-04T02:32:59.155Z,0
2017-08-04T02:33:58.535Z,0
2017-08-04T02:34:59.484Z,0
2017-08-04T02:35:59.129Z,0
2017-08-04T02:36:59.117Z,0
2017-08-04T02:37:59.113Z,0
2017-08-04T02:38:58.790Z,0
2017-08-04T02:39:59.397Z,0
2017-08-04T02:40:59.072Z,0
2017-08-04T02:41:59.062Z,0
2017-08-04T02:42:58.741Z,0
2017-08-04T02:43:58.730Z,0
2017-08-04T02:44:59.344Z,0
2017-08-04T02:45:58.717Z,0
2017-08-04T02:46:59.022Z,0
2017-08-04T02:47:58.992Z,0
2017-08-04T02:48:59.009Z,0
2017-08-04T02:49:58.972Z,0
2017-08-04T02:50:58.963Z,0
2017-08-04T02:51:58.954Z,0
2017-08-04T02:52:59.254Z,0
2017-08-04T02:53:58.309Z,0
2017-08-04T02:54:58.610Z,0
2017-08-04T02:55:58.921Z,0
2017-08-04T02:56:58.594Z,0
2017-08-04T02:57:59.202Z,0
2017-08-04T02:58:59.190Z,0
2017-08-04T02:59:58.553Z,0
2017-08-04T03:00:59.164Z,0
2017-08-04T03:01:58.214Z,0
2017-08-04T03:02:58.523Z,0
2017-08-04T03:03:58.517Z,0
2017-08-04T03:04:59.131Z,0
2017-08-04T03:05:58.798Z,0
2017-08-04T03:06:58.786Z,0
2017-08-04T03:07:58.785Z,0
2017-08-04T03:08:58.789Z,0
2017-08-04T03:09:59.118Z,0
2017-08-04T03:10:59.070Z,0
2017-08-04T03:11:58.732Z,0
2017-08-04T03:12:58.408Z,0
2017-08-04T03:13:58.711Z,0
2017-08-04T03:14:58.387Z,0
2017-08-04T03:15:58.682Z,0
2017-08-04T03:16:59.003Z,0
2017-08-04T03:17:58.664Z,0
2017-08-04T03:18:58.345Z,0
2017-08-04T03:19:58.070Z,0
2017-08-04T03:20:58.949Z,0
2017-08-04T03:21:58.936Z,0
2017-08-04T03:22:58.606Z,0
2017-08-04T03:23:58.297Z,0
2017-08-04T03:24:58.895Z,4
2017-08-04T03:25:58.266Z,4
2017-08-04T03:26:58.464Z,4
2017-08-04T03:27:58.872Z,0
2017-08-04T03:28:58.857Z,0
2017-08-04T03:29:58.223Z,4
2017-08-04T03:30:58.850Z,4
2017-08-04T03:31:58.848Z,4
2017-08-04T03:32:58.410Z,4
2017-08-04T03:33:58.499Z,8
2017-08-04T03:34:58.486Z,8
2017-08-04T03:35:58.472Z,8
2017-08-04T03:36:58.790Z,8
2017-08-04T03:37:58.454Z,8
2017-08-04T03:38:58.446Z,8
2017-08-04T03:39:58.742Z,12
2017-08-04T03:40:57.804Z,12
2017-08-04T03:41:58.101Z,16
2017-08-04T03:42:58.078Z,16
2017-08-04T03:43:58.388Z,24
2017-08-04T03:44:58.371Z,24
2017-08-04T03:45:58.377Z,28
2017-08-04T03:46:58.373Z,28
2017-08-04T03:47:58.029Z,32
2017-08-04T03:48:58.333Z,40
2017-08-04T03:49:58.639Z,44
2017-08-04T03:50:57.736Z,48
2017-08-04T03:51:58.296Z,52
2017-08-04T03:52:58.291Z,60
2017-08-04T03:53:57.967Z,64
2017-08-04T03:54:57.644Z,72
2017-08-04T03:55:58.561Z,76
2017-08-04T03:56:58.253Z,76
2017-08-04T03:57:58.265Z,84
2017-08-04T03:58:57.594Z,96
2017-08-04T03:59:58.210Z,104
2017-08-04T04:00:57.887Z,108
2017-08-04T04:01:58.191Z,116
2017-08-04T04:02:58.493Z,116
2017-08-04T04:03:58.165Z,128
2017-08-04T04:04:58.482Z,132
2017-08-04T04:05:58.149Z,144
2017-08-04T04:06:58.457Z,148
2017-08-04T04:07:57.832Z,160
2017-08-04T04:08:57.803Z,168
2017-08-04T04:09:57.794Z,180
2017-08-04T04:10:58.086Z,188
2017-08-04T04:11:57.772Z,196
2017-08-04T04:12:57.447Z,212
2017-08-04T04:13:57.752Z,224
2017-08-04T04:14:57.436Z,228
2017-08-04T04:15:58.058Z,240
2017-08-04T04:16:58.341Z,248
2017-08-04T04:17:58.327Z,260
2017-08-04T04:18:58.005Z,280
2017-08-04T04:19:57.377Z,276
2017-08-04T04:20:57.679Z,280
2017-08-04T04:21:57.971Z,300
2017-08-04T04:22:57.651Z,316
2017-08-04T04:23:57.955Z,332
2017-08-04T04:24:57.939Z,332
2017-08-04T04:25:58.242Z,340
2017-08-04T04:26:58.226Z,360
2017-08-04T04:27:57.908Z,392
2017-08-04T04:28:57.893Z,400
2017-08-04T04:29:57.883Z,372
2017-08-04T04:30:57.929Z,376
2017-08-04T04:31:57.554Z,408
2017-08-04T04:32:58.165Z,416
2017-08-04T04:33:57.842Z,408
2017-08-04T04:34:57.208Z,408
2017-08-04T04:35:58.139Z,388
2017-08-04T04:36:57.498Z,380
2017-08-04T04:37:58.116Z,424
2017-08-04T04:38:58.103Z,408
2017-08-04T04:39:57.786Z,420
2017-08-04T04:40:57.817Z,424
2017-08-04T04:41:57.143Z,484
2017-08-04T04:42:57.791Z,532
2017-08-04T04:43:57.422Z,568
2017-08-04T04:44:58.041Z,612
2017-08-04T04:45:57.717Z,664
2017-08-04T04:46:57.709Z,772
2017-08-04T04:47:58.003Z,816
2017-08-04T04:48:58.009Z,972
2017-08-04T04:49:57.689Z,1160
2017-08-04T04:50:57.973Z,1200
2017-08-04T04:51:57.964Z,1208
2017-08-04T04:52:57.329Z,1192
2017-08-04T04:53:57.946Z,1204
2017-08-04T04:54:57.931Z,1296
2017-08-04T04:55:57.604Z,1392
2017-08-04T04:56:57.595Z,1512
2017-08-04T04:57:57.273Z,1512
2017-08-04T04:58:57.579Z,1424
2017-08-04T04:59:57.567Z,1444
2017-08-04T05:00:57.555Z,1464
2017-08-04T05:01:57.237Z,1388
2017-08-04T05:02:57.536Z,1292
2017-08-04T05:03:57.211Z,1460
2017-08-04T05:04:57.823Z,1588
2017-08-04T05:05:57.518Z,1620
2017-08-04T05:06:57.186Z,1648
2017-08-04T05:07:56.853Z,1688
2017-08-04T05:08:57.463Z,1848
2017-08-04T05:09:57.460Z,1988
2017-08-04T05:10:57.444Z,2128
2017-08-04T05:11:57.744Z,2172
2017-08-04T05:12:57.108Z,2196
2017-08-04T05:13:57.103Z,2048
2017-08-04T05:14:57.404Z,2088
2017-08-04T05:15:57.086Z,2192
2017-08-04T05:16:57.070Z,2160
2017-08-04T05:17:57.068Z,1972
2017-08-04T05:18:56.734Z,1796
2017-08-04T05:19:56.731Z,1748
2017-08-04T05:20:57.038Z,1596
2017-08-04T05:21:57.018Z,1552
2017-08-04T05:22:57.319Z,1672
2017-08-04T05:23:57.017Z,1640
2017-08-04T05:24:57.617Z,1580
2017-08-04T05:25:57.603Z,2008
2017-08-04T05:26:57.681Z,2464
2017-08-04T05:27:57.326Z,2420
2017-08-04T05:28:57.265Z,2364
2017-08-04T05:29:56.934Z,2280
2017-08-04T05:30:57.240Z,2300
2017-08-04T05:31:57.541Z,2420
2017-08-04T05:32:57.529Z,2496
2017-08-04T05:33:57.214Z,2440
2017-08-04T05:34:57.196Z,2348
2017-08-04T05:35:56.881Z,2340
2017-08-04T05:36:57.178Z,2332
2017-08-04T05:37:56.863Z,2352
2017-08-04T05:38:56.841Z,2308
2017-08-04T05:39:57.148Z,2248
2017-08-04T05:40:57.445Z,2088
2017-08-04T05:41:57.120Z,2192
2017-08-04T05:42:57.116Z,2392
2017-08-04T05:43:57.103Z,2464
2017-08-04T05:44:57.107Z,2584
2017-08-04T05:45:56.774Z,2812
2017-08-04T05:46:57.074Z,2900
2017-08-04T05:47:57.066Z,2888
2017-08-04T05:48:57.387Z,2848
2017-08-04T05:49:56.423Z,2876
2017-08-04T05:50:57.032Z,3188
2017-08-04T05:51:57.027Z,3496
2017-08-04T05:52:57.016Z,3452
2017-08-04T05:53:57.314Z,3540
2017-08-04T05:54:57.005Z,3440
2017-08-04T05:55:56.985Z,3656
2017-08-04T05:56:56.657Z,3688
2017-08-04T05:57:56.964Z,3932
2017-08-04T05:58:56.953Z,4244
2017-08-04T05:59:56.942Z,4264
2017-08-04T06:00:56.620Z,4316
2017-08-04T06:01:57.241Z,3900
2017-08-04T06:02:57.225Z,3656
2017-08-04T06:03:56.277Z,3624
2017-08-04T06:04:56.901Z,3568
2017-08-04T06:05:56.900Z,3424
2017-08-04T06:06:56.882Z,3120
2017-08-04T06:07:56.561Z,3304
2017-08-04T06:08:56.852Z,3328
2017-08-04T06:09:57.160Z,3548
2017-08-04T06:10:56.839Z,4252
2017-08-04T06:11:56.826Z,4524
2017-08-04T06:12:56.815Z,4664
2017-08-04T06:13:56.810Z,4348
2017-08-04T06:14:56.501Z,4416
2017-08-04T06:15:57.103Z,4460
2017-08-04T06:16:56.774Z,4704
2017-08-04T06:17:56.764Z,4744
2017-08-04T06:18:56.752Z,4584
2017-08-04T06:19:56.745Z,4380
2017-08-04T06:20:56.749Z,3872
2017-08-04T06:21:57.044Z,4392
2017-08-04T06:22:57.043Z,5196
2017-08-04T06:23:57.019Z,5304
2017-08-04T06:24:56.703Z,4412
2017-08-04T06:25:56.685Z,4232
2017-08-04T06:26:56.367Z,4384
2017-08-04T06:27:56.351Z,4628
2017-08-04T06:28:56.664Z,5316
2017-08-04T06:29:56.333Z,5188
2017-08-04T06:30:56.009Z,4752
2017-08-04T06:31:56.628Z,4836
2017-08-04T06:32:56.001Z,4664
2017-08-04T06:33:56.959Z,4756
2017-08-04T06:34:56.370Z,5036
2017-08-04T06:35:56.604Z,4912
2017-08-04T06:36:56.582Z,4660
2017-08-04T06:37:56.886Z,4104
2017-08-04T06:38:56.560Z,3788
2017-08-04T06:39:56.248Z,3896
2017-08-04T06:40:56.546Z,4212
2017-08-04T06:41:56.636Z,4904
2017-08-04T06:42:56.553Z,5088
2017-08-04T06:43:55.888Z,6216
2017-08-04T06:44:56.506Z,6448
2017-08-04T06:45:56.178Z,6132
2017-08-04T06:46:56.532Z,6868
2017-08-04T06:47:56.524Z,7424
2017-08-04T06:48:55.846Z,8180
2017-08-04T06:49:56.773Z,8236
2017-08-04T06:50:56.761Z,8096
2017-08-04T06:51:56.754Z,7608
2017-08-04T06:52:56.740Z,6652
2017-08-04T06:53:56.738Z,5540
2017-08-04T06:54:56.720Z,4876
2017-08-04T06:55:56.396Z,4268
2017-08-04T06:56:56.708Z,4164
2017-08-04T06:57:56.377Z,4184
2017-08-04T06:58:56.364Z,4024
2017-08-04T06:59:56.052Z,4160
2017-08-04T07:00:56.360Z,4532
2017-08-04T07:01:56.659Z,5832
2017-08-04T07:02:56.387Z,6464
2017-08-04T07:03:56.673Z,6884
2017-08-04T07:04:56.324Z,6312
2017-08-04T07:05:55.990Z,6324
2017-08-04T07:06:56.305Z,6796
2017-08-04T07:07:56.034Z,6760
2017-08-04T07:08:55.970Z,6344
2017-08-04T07:09:56.587Z,6816
2017-08-04T07:10:55.957Z,6656
2017-08-04T07:11:56.260Z,7144
2017-08-04T07:12:56.235Z,7976
2017-08-04T07:13:56.235Z,8268
2017-08-04T07:14:55.909Z,7444
2017-08-04T07:15:55.912Z,7500
2017-08-04T07:16:56.518Z,7024
2017-08-04T07:17:56.509Z,7260
2017-08-04T07:18:55.561Z,7416
2017-08-04T07:19:56.177Z,6964
2017-08-04T07:20:55.538Z,6680
2017-08-04T07:21:56.179Z,7040
2017-08-04T07:22:56.464Z,6564
2017-08-04T07:23:56.457Z,6176
2017-08-04T07:24:56.135Z,5904
2017-08-04T07:25:56.435Z,5624
2017-08-04T07:26:56.528Z,6580
2017-08-04T07:27:56.121Z,7576
2017-08-04T07:28:56.411Z,7348
2017-08-04T07:29:56.402Z,6400
2017-08-04T07:30:56.391Z,7116
2017-08-04T07:31:55.448Z,7924
2017-08-04T07:32:55.759Z,7916
2017-08-04T07:33:55.769Z,6988
2017-08-04T07:34:56.048Z,8316
2017-08-04T07:35:55.725Z,9840
2017-08-04T07:36:56.345Z,9792
2017-08-04T07:37:56.342Z,8532
2017-08-04T07:38:56.011Z,8904
2017-08-04T07:39:56.025Z,9336
2017-08-04T07:40:55.998Z,8772
2017-08-04T07:41:56.297Z,7500
2017-08-04T07:42:55.979Z,6508
2017-08-04T07:43:55.670Z,6388
2017-08-04T07:44:56.268Z,7444
2017-08-04T07:45:55.332Z,7364
2017-08-04T07:46:55.942Z,8132
2017-08-04T07:47:55.936Z,9376
2017-08-04T07:48:55.925Z,8704
2017-08-04T07:49:56.244Z,7396
2017-08-04T07:50:55.908Z,8116
2017-08-04T07:51:56.261Z,8764
2017-08-04T07:52:56.208Z,9084
2017-08-04T07:53:56.194Z,9908
2017-08-04T07:54:55.889Z,9308
2017-08-04T07:55:55.555Z,8560
2017-08-04T07:56:55.551Z,9856
2017-08-04T07:57:55.850Z,14884
2017-08-04T07:58:55.211Z,12284
2017-08-04T07:59:56.149Z,10972
2017-08-04T08:00:56.137Z,10512
2017-08-04T08:01:55.504Z,9192
2017-08-04T08:02:55.547Z,10852
2017-08-04T08:03:56.112Z,12684
2017-08-04T08:04:56.108Z,14340
2017-08-04T08:05:55.778Z,10180
2017-08-04T08:06:56.084Z,10620
2017-08-04T08:07:55.466Z,11796
2017-08-04T08:08:55.761Z,10924
2017-08-04T08:09:56.066Z,11700
2017-08-04T08:10:56.051Z,11588
2017-08-04T08:11:56.075Z,14164
2017-08-04T08:12:55.108Z,11936
2017-08-04T08:13:55.724Z,14268
2017-08-04T08:14:55.405Z,11512
2017-08-04T08:15:55.415Z,12452
2017-08-04T08:16:55.381Z,11964
2017-08-04T08:17:56.002Z,11340
2017-08-04T08:18:55.992Z,12064
2017-08-04T08:19:55.978Z,12408
2017-08-04T08:20:55.352Z,19008
2017-08-04T08:21:55.965Z,17760
2017-08-04T08:22:55.646Z,11660
2017-08-04T08:23:55.327Z,12452
2017-08-04T08:24:55.945Z,14236
2017-08-04T08:25:55.943Z,13152
2017-08-04T08:26:55.614Z,14368
2017-08-04T08:27:55.921Z,13440
2017-08-04T08:28:55.965Z,11884
2017-08-04T08:29:55.598Z,11192
2017-08-04T08:30:54.959Z,11608
2017-08-04T08:31:55.264Z,10104
2017-08-04T08:32:56.094Z,10624
2017-08-04T08:33:55.575Z,11524
2017-08-04T08:34:55.575Z,12472
2017-08-04T08:35:55.865Z,13212
2017-08-04T08:36:55.852Z,11212
2017-08-04T08:37:55.531Z,10664
2017-08-04T08:38:55.573Z,10228
2017-08-04T08:39:55.832Z,11872
2017-08-04T08:40:55.827Z,13644
2017-08-04T08:41:55.820Z,14096
2017-08-04T08:42:55.187Z,13776
2017-08-04T08:43:55.181Z,16736
2017-08-04T08:44:55.492Z,17472
2017-08-04T08:45:55.473Z,15244
2017-08-04T08:46:55.159Z,14232
2017-08-04T08:47:55.461Z,10348
2017-08-04T08:48:55.454Z,9792
2017-08-04T08:49:55.454Z,11200
2017-08-04T08:50:55.446Z,14200
2017-08-04T08:51:55.144Z,16928
2017-08-04T08:52:55.428Z,13328
2017-08-04T08:53:55.733Z,13672
2017-08-04T08:54:55.719Z,13640
2017-08-04T08:55:55.098Z,14352
2017-08-04T08:56:55.731Z,15492
2017-08-04T08:57:55.732Z,14216
2017-08-04T08:58:55.695Z,15052
2017-08-04T08:59:55.386Z,14904
2017-08-04T09:00:55.383Z,13496
2017-08-04T09:01:55.377Z,14440
2017-08-04T09:02:55.363Z,12236
2017-08-04T09:03:55.403Z,13280
2017-08-04T09:04:55.345Z,12172
2017-08-04T09:05:55.698Z,12516
2017-08-04T09:06:55.647Z,15500
2017-08-04T09:07:55.010Z,16928
2017-08-04T09:08:55.332Z,11040
2017-08-04T09:09:55.317Z,9160
2017-08-04T09:10:55.627Z,8376
2017-08-04T09:11:55.296Z,6696
2017-08-04T09:12:55.634Z,6176
2017-08-04T09:13:55.290Z,6500
2017-08-04T09:14:55.359Z,10076
2017-08-04T09:15:55.275Z,11924
2017-08-04T09:16:54.967Z,11460
2017-08-04T09:17:54.952Z,8044
2017-08-04T09:18:55.253Z,7936
2017-08-04T09:19:55.260Z,10280
2017-08-04T09:20:55.244Z,12628
2017-08-04T09:21:55.234Z,16480
2017-08-04T09:22:55.226Z,12904
2017-08-04T09:23:55.225Z,11632
2017-08-04T09:24:55.217Z,9160
2017-08-04T09:25:55.211Z,7112
2017-08-04T09:26:55.516Z,7912
2017-08-04T09:27:54.882Z,8520
2017-08-04T09:28:55.180Z,8484
2017-08-04T09:29:55.168Z,8000
2017-08-04T09:30:54.854Z,9356
2017-08-04T09:31:54.859Z,11844
2017-08-04T09:32:55.150Z,10996
2017-08-04T09:33:55.149Z,13892
2017-08-04T09:34:54.828Z,14888
2017-08-04T09:35:54.832Z,11364
2017-08-04T09:36:55.444Z,10060
2017-08-04T09:37:54.495Z,14832
2017-08-04T09:38:55.430Z,13976
2017-08-04T09:39:55.107Z,14708
2017-08-04T09:40:55.102Z,17248
2017-08-04T09:41:54.776Z,19072
2017-08-04T09:42:55.401Z,19264
2017-08-04T09:43:54.766Z,20960
2017-08-04T09:44:55.078Z,20768
2017-08-04T09:45:55.378Z,20288
2017-08-04T09:46:55.054Z,19168
2017-08-04T09:47:55.386Z,19840
2017-08-04T09:48:54.731Z,20160
2017-08-04T09:49:55.350Z,20480
2017-08-04T09:50:54.751Z,21280
2017-08-04T09:51:55.025Z,21088
2017-08-04T09:52:55.023Z,18368
2017-08-04T09:53:54.698Z,18304
2017-08-04T09:54:55.008Z,19616
2017-08-04T09:55:55.319Z,19008
2017-08-04T09:56:54.997Z,15380
2017-08-04T09:57:54.677Z,14668
2017-08-04T09:58:54.982Z,13712
2017-08-04T09:59:54.976Z,8632
2017-08-04T10:00:54.971Z,6244
2017-08-04T10:01:54.655Z,6104
2017-08-04T10:02:54.717Z,8624
2017-08-04T10:03:54.953Z,11792
2017-08-04T10:04:55.269Z,12148
2017-08-04T10:05:55.258Z,12724
2017-08-04T10:06:54.936Z,14504
2017-08-04T10:07:54.920Z,18752
2017-08-04T10:08:54.912Z,21600
2017-08-04T10:09:55.226Z,22176
2017-08-04T10:10:54.594Z,22496
2017-08-04T10:11:54.284Z,24000
2017-08-04T10:12:55.209Z,25216
2017-08-04T10:13:54.896Z,26016
2017-08-04T10:14:55.188Z,19648
2017-08-04T10:15:54.560Z,18368
2017-08-04T10:16:54.869Z,17952
2017-08-04T10:17:54.550Z,19360
2017-08-04T10:18:54.281Z,19840
2017-08-04T10:19:55.180Z,18688
2017-08-04T10:20:55.162Z,18112
2017-08-04T10:21:54.528Z,16768
2017-08-04T10:22:54.828Z,13060
2017-08-04T10:23:54.831Z,11896
2017-08-04T10:24:54.522Z,12604
2017-08-04T10:25:54.814Z,11372
2017-08-04T10:26:54.830Z,9524
2017-08-04T10:27:54.805Z,9944
2017-08-04T10:28:54.485Z,8828
2017-08-04T10:29:54.792Z,8852
2017-08-04T10:30:54.480Z,9368
2017-08-04T10:31:54.806Z,9620
2017-08-04T10:32:55.091Z,10424
2017-08-04T10:33:55.136Z,11112
2017-08-04T10:34:54.765Z,9740
2017-08-04T10:35:55.078Z,8760
2017-08-04T10:36:54.442Z,10312
2017-08-04T10:37:54.742Z,13796
2017-08-04T10:38:55.106Z,14500
2017-08-04T10:39:54.414Z,13728
2017-08-04T10:40:55.039Z,12268
2017-08-04T10:41:54.724Z,11232
2017-08-04T10:42:54.711Z,11144
2017-08-04T10:43:55.031Z,10228
2017-08-04T10:44:54.699Z,9120
2017-08-04T10:45:55.031Z,9616
2017-08-04T10:46:54.996Z,10104
2017-08-04T10:47:54.996Z,7912
2017-08-04T10:48:54.733Z,5580
2017-08-04T10:49:54.364Z,4488
2017-08-04T10:50:54.664Z,4760
2017-08-04T10:51:55.026Z,5704
2017-08-04T10:52:54.332Z,5336
2017-08-04T10:53:54.948Z,4924
2017-08-04T10:54:54.006Z,5236
2017-08-04T10:55:54.331Z,6060
2017-08-04T10:56:54.306Z,6772
2017-08-04T10:57:54.608Z,7676
2017-08-04T10:58:54.310Z,7144
2017-08-04T10:59:54.610Z,6996
2017-08-04T11:00:54.900Z,8100
2017-08-04T11:01:54.264Z,9552
2017-08-04T11:02:54.575Z,10620
2017-08-04T11:03:53.948Z,10580
2017-08-04T11:04:54.265Z,12888
2017-08-04T11:05:54.547Z,19616
2017-08-04T11:06:53.916Z,24864
2017-08-04T11:07:54.543Z,21568
2017-08-04T11:08:54.218Z,72064
2017-08-04T11:09:54.530Z,56928
2017-08-04T11:10:54.513Z,81376
2017-08-04T11:11:54.196Z,14580
2017-08-04T11:12:54.497Z,7780
2017-08-04T11:13:54.494Z,6808
2017-08-04T11:15:26.250Z,11196
2017-08-04T11:15:54.823Z,12300
2017-08-04T11:16:54.164Z,12008
2017-08-04T11:17:54.160Z,13740
2017-08-04T11:18:54.474Z,9468
2017-08-04T11:19:54.488Z,5016
2017-08-04T11:20:54.774Z,4468
2017-08-04T11:21:54.136Z,4256
2017-08-04T11:22:54.134Z,3572
2017-08-04T11:23:54.447Z,3592
2017-08-04T11:24:54.759Z,4264
2017-08-04T11:25:53.802Z,3876
2017-08-04T11:26:54.413Z,3496
2017-08-04T11:27:54.305Z,3852
2017-08-04T11:28:54.089Z,5604
2017-08-04T11:29:54.393Z,8696
2017-08-04T11:30:54.395Z,11984
2017-08-04T11:31:54.701Z,16376
2017-08-04T11:32:54.379Z,32544
2017-08-04T11:33:54.683Z,14080
2017-08-04T11:34:54.726Z,11284
2017-08-04T11:35:54.739Z,13452
2017-08-04T11:36:54.565Z,13044
2017-08-04T11:37:54.344Z,10992
2017-08-04T11:38:54.648Z,11340
2017-08-04T11:39:54.332Z,15212
2017-08-04T11:40:54.644Z,21344
2017-08-04T11:41:54.354Z,41184
2017-08-04T11:42:54.005Z,28672
2017-08-04T11:43:54.624Z,25184
2017-08-04T11:44:53.987Z,21440
2017-08-04T11:45:54.288Z,59040
2017-08-04T11:46:54.296Z,23072
2017-08-04T11:47:53.660Z,76928
2017-08-04T11:48:54.276Z,21504
2017-08-04T11:49:54.283Z,17024
2017-08-04T11:50:54.586Z,21696
2017-08-04T11:51:54.578Z,19520
2017-08-04T11:52:54.255Z,14212
2017-08-04T11:53:54.564Z,83680
2017-08-04T11:54:53.934Z,55904
2017-08-04T11:55:53.926Z,20448
2017-08-04T11:56:53.944Z,26720
2017-08-04T11:57:54.248Z,33888
2017-08-04T11:58:54.546Z,15188
2017-08-04T11:59:54.274Z,9100
2017-08-04T12:00:54.533Z,6968
2017-08-04T12:01:54.220Z,8576
2017-08-04T12:02:53.897Z,16288
2017-08-04T12:03:54.211Z,9164
2017-08-04T12:04:54.211Z,6208
2017-08-04T12:05:54.509Z,3856
2017-08-04T12:06:54.510Z,2460
2017-08-04T12:07:54.508Z,1704
2017-08-04T12:08:53.872Z,2676
2017-08-04T12:09:54.227Z,4964
2017-08-04T12:10:54.199Z,8080
2017-08-04T12:11:54.487Z,14092
2017-08-04T12:12:54.177Z,24064
2017-08-04T12:13:54.488Z,20864
2017-08-04T12:14:54.570Z,16768
2017-08-04T12:15:54.460Z,17504
2017-08-04T12:16:54.161Z,83904
2017-08-04T12:17:53.821Z,93664
2017-08-04T12:18:54.131Z,57376
2017-08-04T12:19:54.130Z,35040
2017-08-04T12:20:53.806Z,79040
2017-08-04T12:21:54.426Z,42720
2017-08-04T12:22:54.116Z,45568
2017-08-04T12:23:54.110Z,31200
2017-08-04T12:24:54.414Z,19904
2017-08-04T12:25:54.408Z,19392
2017-08-04T12:26:54.408Z,19232
2017-08-04T12:27:54.100Z,24384
2017-08-04T12:28:54.087Z,24768
2017-08-04T12:29:53.804Z,23488
2017-08-04T12:30:53.778Z,38112
2017-08-04T12:31:54.079Z,50432
2017-08-04T12:32:54.069Z,85408
2017-08-04T12:33:54.063Z,62400
2017-08-04T12:34:54.075Z,92384
2017-08-04T12:35:54.084Z,93408
2017-08-04T12:36:53.749Z,27776
2017-08-04T12:37:53.756Z,101888
2017-08-04T12:38:54.383Z,31360
2017-08-04T12:39:54.368Z,93376
2017-08-04T12:40:53.754Z,31168
2017-08-04T12:41:54.050Z,25792
2017-08-04T12:42:54.049Z,70240
2017-08-04T12:43:53.738Z,30944
2017-08-04T12:44:54.046Z,36064
2017-08-04T12:45:53.725Z,23168
2017-08-04T12:46:54.034Z,82848
2017-08-04T12:47:54.043Z,31200
2017-08-04T12:48:54.343Z,20672
2017-08-04T12:49:54.351Z,18656
2017-08-04T12:50:54.026Z,18912
2017-08-04T12:51:54.025Z,16060
2017-08-04T12:52:54.333Z,39904
2017-08-04T12:53:53.708Z,40416
2017-08-04T12:54:54.023Z,25088
2017-08-04T12:55:53.709Z,24384
2017-08-04T12:56:54.323Z,51264
2017-08-04T12:57:53.700Z,32608
2017-08-04T12:58:54.006Z,18464
2017-08-04T12:59:54.005Z,57696
2017-08-04T13:00:53.383Z,75712
2017-08-04T13:01:53.994Z,89312
2017-08-04T13:02:54.003Z,89344
2017-08-04T13:03:53.697Z,69664
2017-08-04T13:04:53.990Z,28640
2017-08-04T13:05:53.990Z,112032
2017-08-04T13:06:53.679Z,31296
2017-08-04T13:07:53.681Z,28160
2017-08-04T13:08:53.992Z,28320
2017-08-04T13:09:53.664Z,56864
2017-08-04T13:10:53.671Z,39104
2017-08-04T13:11:53.664Z,63360
2017-08-04T13:12:53.994Z,39104
2017-08-04T13:13:53.667Z,47168
2017-08-04T13:14:54.291Z,103104
2017-08-04T13:15:53.656Z,30848
2017-08-04T13:16:54.283Z,70208
2017-08-04T13:17:53.972Z,46144
2017-08-04T13:18:54.285Z,57088
2017-08-04T13:19:53.997Z,100320
2017-08-04T13:20:53.966Z,111456
2017-08-04T13:21:53.961Z,22496
2017-08-04T13:22:53.962Z,32384
2017-08-04T13:23:53.650Z,27680
2017-08-04T13:24:54.268Z,54016
2017-08-04T13:25:53.644Z,21376
2017-08-04T13:26:53.959Z,21600
2017-08-04T13:27:54.179Z,23872
2017-08-04T13:28:53.663Z,49184
2017-08-04T13:29:53.640Z,32928
2017-08-04T13:30:53.655Z,61152
2017-08-04T13:31:53.656Z,43200
2017-08-04T13:32:53.950Z,51008
2017-08-04T13:33:53.626Z,78976